sensor_id;sensor_type;location;lat;lon;timestamp;pressure;altitude;pressure_sealevel;temperature;humidity
19208;BME280;9737;59.466;18.036;2023-04-24T00:00:31;97972.03;;;5.69;40.17
19208;BME280;9737;59.466;18.036;2023-04-24T00:02:59;97920.44;;;5.57;39.85
19208;BME280;9737;59.466;18.036;2023-04-24T00:05:27;97908.78;;;5.50;40.02
19208;BME280;9737;59.466;18.036;2023-04-24T00:07:55;97902.56;;;5.51;40.06
19208;BME280;9737;59.466;18.036;2023-04-24T00:10:23;97886.31;;;5.46;40.35
19208;BME280;9737;59.466;18.036;2023-04-24T00:12:52;97887.13;;;5.46;40.76
19208;BME280;9737;59.466;18.036;2023-04-24T00:15:20;97878.53;;;5.44;41.07
19208;BME280;9737;59.466;18.036;2023-04-24T00:17:48;97890.75;;;5.45;41.00
19208;BME280;9737;59.466;18.036;2023-04-24T00:20:16;97848.59;;;5.36;40.99
19208;BME280;9737;59.466;18.036;2023-04-24T00:22:45;97829.75;;;5.31;41.13
19208;BME280;9737;59.466;18.036;2023-04-24T00:25:13;97810.91;;;5.25;41.23
19208;BME280;9737;59.466;18.036;2023-04-24T00:27:41;97819.50;;;5.27;40.70
19208;BME280;9737;59.466;18.036;2023-04-24T00:30:11;97813.41;;;5.27;40.71
19208;BME280;9737;59.466;18.036;2023-04-24T00:32:39;97781.09;;;5.15;40.79
19208;BME280;9737;59.466;18.036;2023-04-24T00:35:07;97768.75;;;5.16;41.42
19208;BME280;9737;59.466;18.036;2023-04-24T00:37:35;97766.41;;;5.13;41.62
19208;BME280;9737;59.466;18.036;2023-04-24T00:40:04;97764.91;;;5.10;41.01
19208;BME280;9737;59.466;18.036;2023-04-24T00:42:33;97760.59;;;5.09;41.13
19208;BME280;9737;59.466;18.036;2023-04-24T00:45:00;97737.47;;;5.03;41.45
19208;BME280;9737;59.466;18.036;2023-04-24T00:47:32;97722.94;;;4.99;41.60
19208;BME280;9737;59.466;18.036;2023-04-24T00:50:01;97707.97;;;4.90;41.48
19208;BME280;9737;59.466;18.036;2023-04-24T00:52:29;97717.00;;;4.97;41.62
19208;BME280;9737;59.466;18.036;2023-04-24T00:54:58;97718.94;;;4.95;41.57
19208;BME280;9737;59.466;18.036;2023-04-24T00:57:26;97678.78;;;4.74;41.74
19208;BME280;9737;59.466;18.036;2023-04-24T00:59:55;97722.09;;;4.98;42.18
19208;BME280;9737;59.466;18.036;2023-04-24T01:02:23;97705.91;;;4.93;42.17
19208;BME280;9737;59.466;18.036;2023-04-24T01:04:52;97679.28;;;4.87;42.24
19208;BME280;9737;59.466;18.036;2023-04-24T01:07:20;97679.59;;;4.84;42.53
19208;BME280;9737;59.466;18.036;2023-04-24T01:09:49;97653.53;;;4.81;41.96
19208;BME280;9737;59.466;18.036;2023-04-24T01:12:18;97647.75;;;4.77;42.36
19208;BME280;9737;59.466;18.036;2023-04-24T01:14:46;97659.78;;;4.80;42.11
19208;BME280;9737;59.466;18.036;2023-04-24T01:17:14;97657.97;;;4.80;42.54
19208;BME280;9737;59.466;18.036;2023-04-24T01:19:42;97663.25;;;4.80;42.60
19208;BME280;9737;59.466;18.036;2023-04-24T01:22:13;97668.91;;;4.85;42.31
19208;BME280;9737;59.466;18.036;2023-04-24T01:24:41;97628.91;;;4.72;42.72
19208;BME280;9737;59.466;18.036;2023-04-24T01:27:10;97618.66;;;4.69;43.03
19208;BME280;9737;59.466;18.036;2023-04-24T01:29:38;97595.69;;;4.61;42.54
19208;BME280;9737;59.466;18.036;2023-04-24T01:32:07;97593.03;;;4.61;42.77
19208;BME280;9737;59.466;18.036;2023-04-24T01:34:34;97609.25;;;4.66;42.64
19208;BME280;9737;59.466;18.036;2023-04-24T01:37:02;97599.84;;;4.64;43.12
19208;BME280;9737;59.466;18.036;2023-04-24T01:39:32;97591.38;;;4.60;43.17
19208;BME280;9737;59.466;18.036;2023-04-24T01:42:01;97575.34;;;4.54;43.16
19208;BME280;9737;59.466;18.036;2023-04-24T01:44:29;97579.50;;;4.56;42.91
19208;BME280;9737;59.466;18.036;2023-04-24T01:46:58;97559.69;;;4.52;43.12
19208;BME280;9737;59.466;18.036;2023-04-24T01:49:26;97547.81;;;4.48;43.08
19208;BME280;9737;59.466;18.036;2023-04-24T01:51:54;97568.28;;;4.54;43.14
19208;BME280;9737;59.466;18.036;2023-04-24T01:54:22;97551.13;;;4.50;43.63
19208;BME280;9737;59.466;18.036;2023-04-24T01:56:51;97567.59;;;4.52;43.12
19208;BME280;9737;59.466;18.036;2023-04-24T01:59:20;97583.94;;;4.56;43.88
19208;BME280;9737;59.466;18.036;2023-04-24T02:01:49;97572.56;;;4.55;43.90
19208;BME280;9737;59.466;18.036;2023-04-24T02:04:17;97548.09;;;4.45;43.87
19208;BME280;9737;59.466;18.036;2023-04-24T02:06:45;97567.75;;;4.51;43.83
19208;BME280;9737;59.466;18.036;2023-04-24T02:09:13;97566.91;;;4.50;43.95
19208;BME280;9737;59.466;18.036;2023-04-24T02:11:41;97530.13;;;4.41;43.65
19208;BME280;9737;59.466;18.036;2023-04-24T02:14:10;97520.72;;;4.38;44.00
19208;BME280;9737;59.466;18.036;2023-04-24T02:16:38;97498.31;;;4.34;44.14
19208;BME280;9737;59.466;18.036;2023-04-24T02:19:06;97500.22;;;4.32;44.18
19208;BME280;9737;59.466;18.036;2023-04-24T02:21:34;97475.47;;;4.25;43.88
19208;BME280;9737;59.466;18.036;2023-04-24T02:24:02;97476.97;;;4.27;44.20
19208;BME280;9737;59.466;18.036;2023-04-24T02:26:30;97483.06;;;4.28;44.19
19208;BME280;9737;59.466;18.036;2023-04-24T02:28:58;97473.66;;;4.25;44.17
19208;BME280;9737;59.466;18.036;2023-04-24T02:31:28;97473.81;;;4.24;44.55
19208;BME280;9737;59.466;18.036;2023-04-24T02:33:55;97484.72;;;4.29;44.39
19208;BME280;9737;59.466;18.036;2023-04-24T02:36:23;97462.63;;;4.22;44.57
19208;BME280;9737;59.466;18.036;2023-04-24T02:38:51;97463.44;;;4.22;44.50
19208;BME280;9737;59.466;18.036;2023-04-24T02:41:19;97486.53;;;4.28;44.41
19208;BME280;9737;59.466;18.036;2023-04-24T02:43:47;97482.38;;;4.26;44.66
19208;BME280;9737;59.466;18.036;2023-04-24T02:46:16;97483.38;;;4.25;44.77
19208;BME280;9737;59.466;18.036;2023-04-24T02:48:45;97485.03;;;4.26;44.90
19208;BME280;9737;59.466;18.036;2023-04-24T02:51:14;97472.16;;;4.23;44.67
19208;BME280;9737;59.466;18.036;2023-04-24T02:53:42;97481.16;;;4.20;45.31
19208;BME280;9737;59.466;18.036;2023-04-24T02:56:10;97465.38;;;4.20;45.13
19208;BME280;9737;59.466;18.036;2023-04-24T02:58:38;97451.69;;;4.17;45.23
19208;BME280;9737;59.466;18.036;2023-04-24T03:01:06;97449.22;;;4.15;45.04
19208;BME280;9737;59.466;18.036;2023-04-24T03:03:34;97439.81;;;4.13;45.40
19208;BME280;9737;59.466;18.036;2023-04-24T03:06:04;97447.56;;;4.14;45.39
19208;BME280;9737;59.466;18.036;2023-04-24T03:08:32;97434.41;;;4.14;45.28
19208;BME280;9737;59.466;18.036;2023-04-24T03:11:00;97453.50;;;4.16;45.64
19208;BME280;9737;59.466;18.036;2023-04-24T03:13:28;97436.50;;;4.11;45.78
19208;BME280;9737;59.466;18.036;2023-04-24T03:15:56;97433.06;;;4.10;45.52
19208;BME280;9737;59.466;18.036;2023-04-24T03:18:24;97428.63;;;4.11;45.77
19208;BME280;9737;59.466;18.036;2023-04-24T03:20:52;97415.91;;;4.06;45.69
19208;BME280;9737;59.466;18.036;2023-04-24T03:23:21;97410.09;;;4.02;45.94
19208;BME280;9737;59.466;18.036;2023-04-24T03:25:49;97411.75;;;4.03;45.93
19208;BME280;9737;59.466;18.036;2023-04-24T03:28:17;97440.78;;;4.12;46.04
19208;BME280;9737;59.466;18.036;2023-04-24T03:30:46;97444.25;;;4.12;46.35
19208;BME280;9737;59.466;18.036;2023-04-24T03:33:14;97440.78;;;4.12;46.08
19208;BME280;9737;59.466;18.036;2023-04-24T03:35:42;97452.97;;;4.13;46.06
19208;BME280;9737;59.466;18.036;2023-04-24T03:38:10;97472.44;;;4.20;46.05
19208;BME280;9737;59.466;18.036;2023-04-24T03:40:39;97437.47;;;4.10;45.82
19208;BME280;9737;59.466;18.036;2023-04-24T03:43:06;97443.41;;;4.12;46.32
19208;BME280;9737;59.466;18.036;2023-04-24T03:45:34;97438.31;;;4.10;46.26
19208;BME280;9737;59.466;18.036;2023-04-24T03:48:02;97459.75;;;4.15;46.37
19208;BME280;9737;59.466;18.036;2023-04-24T03:50:30;97459.59;;;4.17;46.67
19208;BME280;9737;59.466;18.036;2023-04-24T03:52:58;97447.72;;;4.13;46.78
19208;BME280;9737;59.466;18.036;2023-04-24T03:55:26;97483.66;;;4.22;46.69
19208;BME280;9737;59.466;18.036;2023-04-24T03:57:55;97489.59;;;4.24;46.71
19208;BME280;9737;59.466;18.036;2023-04-24T04:00:23;97494.03;;;4.23;46.79
19208;BME280;9737;59.466;18.036;2023-04-24T04:02:52;97484.47;;;4.22;47.17
19208;BME280;9737;59.466;18.036;2023-04-24T04:05:20;97469.13;;;4.18;46.63
19208;BME280;9737;59.466;18.036;2023-04-24T04:07:48;97479.66;;;4.18;46.73
19208;BME280;9737;59.466;18.036;2023-04-24T04:10:16;97482.97;;;4.20;46.86
19208;BME280;9737;59.466;18.036;2023-04-24T04:12:45;97484.63;;;4.21;47.04
19208;BME280;9737;59.466;18.036;2023-04-24T04:15:14;97483.94;;;4.19;47.26
19208;BME280;9737;59.466;18.036;2023-04-24T04:17:42;97508.84;;;4.24;47.60
19208;BME280;9737;59.466;18.036;2023-04-24T04:20:12;97482.97;;;4.20;47.14
19208;BME280;9737;59.466;18.036;2023-04-24T04:22:40;97501.94;;;4.23;47.58
19208;BME280;9737;59.466;18.036;2023-04-24T04:25:10;97508.69;;;4.26;47.42
19208;BME280;9737;59.466;18.036;2023-04-24T04:27:39;97499.59;;;4.20;47.75
19208;BME280;9737;59.466;18.036;2023-04-24T04:30:08;97475.66;;;4.14;47.32
19208;BME280;9737;59.466;18.036;2023-04-24T04:32:37;97461.84;;;4.12;47.98
19208;BME280;9737;59.466;18.036;2023-04-24T04:35:06;97479.94;;;4.15;47.46
19208;BME280;9737;59.466;18.036;2023-04-24T04:37:34;97480.63;;;4.17;47.68
19208;BME280;9737;59.466;18.036;2023-04-24T04:40:02;97490.88;;;4.20;48.03
19208;BME280;9737;59.466;18.036;2023-04-24T04:42:33;97494.47;;;4.19;47.82
19208;BME280;9737;59.466;18.036;2023-04-24T04:45:02;97509.97;;;4.22;47.82
19208;BME280;9737;59.466;18.036;2023-04-24T04:47:30;97527.94;;;4.26;48.17
19208;BME280;9737;59.466;18.036;2023-04-24T04:50:00;97539.00;;;4.30;48.36
19208;BME280;9737;59.466;18.036;2023-04-24T04:52:29;97539.69;;;4.32;47.93
19208;BME280;9737;59.466;18.036;2023-04-24T04:54:56;97554.50;;;4.33;48.30
19208;BME280;9737;59.466;18.036;2023-04-24T04:57:24;97586.91;;;4.43;48.26
19208;BME280;9737;59.466;18.036;2023-04-24T04:59:52;97580.94;;;4.41;48.80
19208;BME280;9737;59.466;18.036;2023-04-24T05:02:20;97571.41;;;4.40;48.32
19208;BME280;9737;59.466;18.036;2023-04-24T05:04:48;97593.81;;;4.44;48.74
19208;BME280;9737;59.466;18.036;2023-04-24T05:07:18;97566.41;;;4.37;48.33
19208;BME280;9737;59.466;18.036;2023-04-24T05:09:46;97598.78;;;4.47;48.93
19208;BME280;9737;59.466;18.036;2023-04-24T05:12:13;97594.78;;;4.43;48.36
19208;BME280;9737;59.466;18.036;2023-04-24T05:14:42;97594.78;;;4.43;48.66
19208;BME280;9737;59.466;18.036;2023-04-24T05:17:09;97580.13;;;4.41;48.78
19208;BME280;9737;59.466;18.036;2023-04-24T05:19:38;97592.16;;;4.43;48.67
19208;BME280;9737;59.466;18.036;2023-04-24T05:22:06;97583.56;;;4.41;48.95
19208;BME280;9737;59.466;18.036;2023-04-24T05:24:35;97602.41;;;4.46;48.94
19208;BME280;9737;59.466;18.036;2023-04-24T05:27:03;97623.84;;;4.51;49.29
19208;BME280;9737;59.466;18.036;2023-04-24T05:29:32;97644.47;;;4.56;49.42
19208;BME280;9737;59.466;18.036;2023-04-24T05:32:00;97660.94;;;4.58;48.89
19208;BME280;9737;59.466;18.036;2023-04-24T05:35:46;97622.88;;;4.52;49.17
19208;BME280;9737;59.466;18.036;2023-04-24T05:38:14;97658.47;;;4.56;49.12
19208;BME280;9737;59.466;18.036;2023-04-24T05:40:44;97674.78;;;4.60;49.39
19208;BME280;9737;59.466;18.036;2023-04-24T05:43:12;97648.91;;;4.55;49.46
19208;BME280;9737;59.466;18.036;2023-04-24T05:45:40;97646.41;;;4.54;49.67
19208;BME280;9737;59.466;18.036;2023-04-24T05:48:08;97682.44;;;4.63;50.02
19208;BME280;9737;59.466;18.036;2023-04-24T05:50:35;97676.59;;;4.59;49.62
19208;BME280;9737;59.466;18.036;2023-04-24T05:53:05;97668.69;;;4.59;50.02
19208;BME280;9737;59.466;18.036;2023-04-24T05:55:33;97680.19;;;4.58;49.58
19208;BME280;9737;59.466;18.036;2023-04-24T05:58:02;97720.09;;;4.73;49.87
19208;BME280;9737;59.466;18.036;2023-04-24T06:00:30;97775.75;;;4.88;50.34
19208;BME280;9737;59.466;18.036;2023-04-24T06:02:59;97755.25;;;4.82;50.21
19208;BME280;9737;59.466;18.036;2023-04-24T06:05:27;97805.00;;;4.94;50.03
19208;BME280;9737;59.466;18.036;2023-04-24T06:07:55;97770.91;;;4.83;50.38
19208;BME280;9737;59.466;18.036;2023-04-24T06:10:24;97748.34;;;4.81;50.51
19208;BME280;9737;59.466;18.036;2023-04-24T06:12:52;97761.34;;;4.82;50.58
19208;BME280;9737;59.466;18.036;2023-04-24T06:15:22;97741.69;;;4.77;50.65
19208;BME280;9737;59.466;18.036;2023-04-24T06:17:50;97752.78;;;4.80;50.11
19208;BME280;9737;59.466;18.036;2023-04-24T06:20:18;97750.28;;;4.79;50.84
19208;BME280;9737;59.466;18.036;2023-04-24T06:22:46;97724.53;;;4.73;50.28
19208;BME280;9737;59.466;18.036;2023-04-24T06:25:14;97733.09;;;4.75;50.93
19208;BME280;9737;59.466;18.036;2023-04-24T06:27:43;97764.81;;;4.83;50.96
19208;BME280;9737;59.466;18.036;2023-04-24T06:30:11;97769.13;;;4.84;50.70
19208;BME280;9737;59.466;18.036;2023-04-24T06:32:40;97754.56;;;4.80;50.67
19208;BME280;9737;59.466;18.036;2023-04-24T06:35:08;97733.09;;;4.75;51.36
19208;BME280;9737;59.466;18.036;2023-04-24T06:37:36;97779.66;;;4.84;50.75
19208;BME280;9737;59.466;18.036;2023-04-24T06:40:05;97830.94;;;4.99;50.85
19208;BME280;9737;59.466;18.036;2023-04-24T06:42:34;97835.22;;;5.00;51.42
19208;BME280;9737;59.466;18.036;2023-04-24T06:45:04;97868.91;;;5.06;51.17
19208;BME280;9737;59.466;18.036;2023-04-24T06:47:32;97892.72;;;5.14;51.57
19208;BME280;9737;59.466;18.036;2023-04-24T06:50:00;97877.22;;;5.11;51.00
19208;BME280;9737;59.466;18.036;2023-04-24T06:52:28;97844.78;;;5.01;51.22
19208;BME280;9737;59.466;18.036;2023-04-24T06:55:00;97808.03;;;4.90;51.33
19208;BME280;9737;59.466;18.036;2023-04-24T06:57:28;97847.28;;;5.03;51.62
19208;BME280;9737;59.466;18.036;2023-04-24T06:59:56;97875.69;;;5.09;51.79
19208;BME280;9737;59.466;18.036;2023-04-24T07:02:26;97917.81;;;5.18;51.38
19208;BME280;9737;59.466;18.036;2023-04-24T07:04:54;97922.13;;;5.19;51.57
19208;BME280;9737;59.466;18.036;2023-04-24T07:07:23;97964.03;;;5.32;51.87
19208;BME280;9737;59.466;18.036;2023-04-24T07:09:51;98003.41;;;5.43;52.23
19208;BME280;9737;59.466;18.036;2023-04-24T07:12:18;97999.25;;;5.41;51.94
19208;BME280;9737;59.466;18.036;2023-04-24T07:14:47;98003.53;;;5.42;51.83
19208;BME280;9737;59.466;18.036;2023-04-24T07:17:16;97991.75;;;5.36;52.24
19208;BME280;9737;59.466;18.036;2023-04-24T07:19:45;98043.94;;;5.52;51.83
19208;BME280;9737;59.466;18.036;2023-04-24T07:22:13;98058.38;;;5.57;52.48
19208;BME280;9737;59.466;18.036;2023-04-24T07:24:43;98040.59;;;5.50;52.21
19208;BME280;9737;59.466;18.036;2023-04-24T07:27:12;98056.16;;;5.53;52.44
19208;BME280;9737;59.466;18.036;2023-04-24T07:29:42;98038.91;;;5.49;52.21
19208;BME280;9737;59.466;18.036;2023-04-24T07:32:10;98001.88;;;5.41;52.31
19208;BME280;9737;59.466;18.036;2023-04-24T07:34:38;97942.81;;;5.24;52.17
19208;BME280;9737;59.466;18.036;2023-04-24T07:37:08;97990.09;;;5.35;52.62
19208;BME280;9737;59.466;18.036;2023-04-24T07:39:36;97992.59;;;5.37;52.88
19208;BME280;9737;59.466;18.036;2023-04-24T07:42:04;98038.91;;;5.49;52.95
19208;BME280;9737;59.466;18.036;2023-04-24T07:44:32;98036.41;;;5.47;52.57
19208;BME280;9737;59.466;18.036;2023-04-24T07:46:59;97970.41;;;5.29;52.42
19208;BME280;9737;59.466;18.036;2023-04-24T07:49:27;98022.00;;;5.42;53.15
19208;BME280;9737;59.466;18.036;2023-04-24T07:51:55;98021.03;;;5.43;52.70
19208;BME280;9737;59.466;18.036;2023-04-24T07:54:25;98042.53;;;5.48;53.40
19208;BME280;9737;59.466;18.036;2023-04-24T07:56:52;97981.63;;;5.32;53.07
19208;BME280;9737;59.466;18.036;2023-04-24T07:59:20;97891.63;;;5.07;53.17
19208;BME280;9737;59.466;18.036;2023-04-24T08:01:48;97889.97;;;5.06;53.04
19208;BME280;9737;59.466;18.036;2023-04-24T08:04:16;97946.41;;;5.23;53.32
19208;BME280;9737;59.466;18.036;2023-04-24T08:06:44;98023.78;;;5.41;53.63
19208;BME280;9737;59.466;18.036;2023-04-24T08:09:12;97989.41;;;5.33;52.98
19208;BME280;9737;59.466;18.036;2023-04-24T08:11:41;98005.06;;;5.35;53.06
19208;BME280;9737;59.466;18.036;2023-04-24T08:14:09;98046.13;;;5.47;53.40
19208;BME280;9737;59.466;18.036;2023-04-24T08:16:39;98073.63;;;5.54;53.64
19208;BME280;9737;59.466;18.036;2023-04-24T08:19:08;98092.50;;;5.59;53.23
19208;BME280;9737;59.466;18.036;2023-04-24T08:21:36;98100.28;;;5.60;53.85
19208;BME280;9737;59.466;18.036;2023-04-24T08:24:04;98127.75;;;5.68;53.53
19208;BME280;9737;59.466;18.036;2023-04-24T08:26:34;98065.03;;;5.52;53.23
19208;BME280;9737;59.466;18.036;2023-04-24T08:29:04;98076.13;;;5.55;53.53
19208;BME280;9737;59.466;18.036;2023-04-24T08:31:33;98136.50;;;5.68;53.64
19208;BME280;9737;59.466;18.036;2023-04-24T08:34:01;98197.47;;;5.84;54.15
19208;BME280;9737;59.466;18.036;2023-04-24T08:36:30;98259.28;;;6.01;54.08
19208;BME280;9737;59.466;18.036;2023-04-24T08:39:13;98265.41;;;6.02;53.87
19208;BME280;9737;59.466;18.036;2023-04-24T08:41:42;98305.84;;;6.12;53.62
19208;BME280;9737;59.466;18.036;2023-04-24T08:44:13;98309.47;;;6.11;54.43
19208;BME280;9737;59.466;18.036;2023-04-24T08:46:43;98362.69;;;6.26;54.14
19208;BME280;9737;59.466;18.036;2023-04-24T08:49:12;98365.19;;;6.27;53.83
19208;BME280;9737;59.466;18.036;2023-04-24T08:51:42;98402.28;;;6.35;54.34
19208;BME280;9737;59.466;18.036;2023-04-24T08:54:11;98373.94;;;6.28;54.50
19208;BME280;9737;59.466;18.036;2023-04-24T08:56:43;98415.97;;;6.40;54.25
19208;BME280;9737;59.466;18.036;2023-04-24T08:59:13;98423.88;;;6.40;54.58
19208;BME280;9737;59.466;18.036;2023-04-24T09:01:41;98488.25;;;6.59;54.31
19208;BME280;9737;59.466;18.036;2023-04-24T09:04:10;98562.44;;;6.76;54.49
19208;BME280;9737;59.466;18.036;2023-04-24T09:06:42;98620.03;;;6.92;54.46
19208;BME280;9737;59.466;18.036;2023-04-24T09:09:10;98560.63;;;6.77;54.89
19208;BME280;9737;59.466;18.036;2023-04-24T09:11:39;98560.75;;;6.75;55.21
19208;BME280;9737;59.466;18.036;2023-04-24T09:14:09;98538.34;;;6.70;54.73
19208;BME280;9737;59.466;18.036;2023-04-24T09:16:39;98541.84;;;6.70;54.44
19208;BME280;9737;59.466;18.036;2023-04-24T09:19:07;98558.13;;;6.75;55.43
19208;BME280;9737;59.466;18.036;2023-04-24T09:21:35;98600.41;;;6.85;55.04
19208;BME280;9737;59.466;18.036;2023-04-24T09:24:16;98753.78;;;7.25;54.83
19208;BME280;9737;59.466;18.036;2023-04-24T09:26:44;98801.97;;;7.38;55.54
19208;BME280;9737;59.466;18.036;2023-04-24T09:29:14;98778.13;;;7.29;55.08
19208;BME280;9737;59.466;18.036;2023-04-24T09:31:45;98675.34;;;7.05;55.43
19208;BME280;9737;59.466;18.036;2023-04-24T09:34:13;98700.41;;;7.10;55.43
19208;BME280;9737;59.466;18.036;2023-04-24T09:36:42;98661.81;;;6.98;55.33
19208;BME280;9737;59.466;18.036;2023-04-24T09:39:12;98666.13;;;6.99;55.34
19208;BME280;9737;59.466;18.036;2023-04-24T09:41:47;98702.34;;;7.08;55.59
19208;BME280;9737;59.466;18.036;2023-04-24T09:44:16;98774.78;;;7.27;55.70
19208;BME280;9737;59.466;18.036;2023-04-24T09:46:51;98751.50;;;7.21;55.50
19208;BME280;9737;59.466;18.036;2023-04-24T09:49:22;98729.78;;;7.17;55.81
19208;BME280;9737;59.466;18.036;2023-04-24T09:51:51;98718.63;;;7.13;55.92
19208;BME280;9737;59.466;18.036;2023-04-24T09:54:20;98786.06;;;7.29;55.59
19208;BME280;9737;59.466;18.036;2023-04-24T09:56:50;98779.13;;;7.28;55.51
19208;BME280;9737;59.466;18.036;2023-04-24T09:59:19;98826.63;;;7.39;56.38
19208;BME280;9737;59.466;18.036;2023-04-24T10:01:47;98843.91;;;7.43;55.86
19208;BME280;9737;59.466;18.036;2023-04-24T10:04:18;98878.47;;;7.51;55.96
19208;BME280;9737;59.466;18.036;2023-04-24T10:06:47;98947.63;;;7.67;55.97
19208;BME280;9737;59.466;18.036;2023-04-24T10:09:16;98916.41;;;7.61;56.19
19208;BME280;9737;59.466;18.036;2023-04-24T10:11:46;98969.13;;;7.74;56.15
19208;BME280;9737;59.466;18.036;2023-04-24T10:14:15;99033.88;;;7.91;55.87
19208;BME280;9737;59.466;18.036;2023-04-24T10:16:44;98973.56;;;7.73;56.29
19208;BME280;9737;59.466;18.036;2023-04-24T10:19:14;99020.19;;;7.86;56.16
19208;BME280;9737;59.466;18.036;2023-04-24T10:21:44;98906.22;;;7.57;56.05
19208;BME280;9737;59.466;18.036;2023-04-24T10:24:14;98888.19;;;7.51;56.21
19208;BME280;9737;59.466;18.036;2023-04-24T10:26:44;98964.94;;;7.71;56.29
19208;BME280;9737;59.466;18.036;2023-04-24T10:29:13;98988.22;;;7.77;56.31
19208;BME280;9737;59.466;18.036;2023-04-24T10:31:42;98985.56;;;7.77;56.37
19208;BME280;9737;59.466;18.036;2023-04-24T10:34:14;98944.28;;;7.65;56.68
19208;BME280;9737;59.466;18.036;2023-04-24T10:36:47;98917.50;;;7.59;56.21
19208;BME280;9737;59.466;18.036;2023-04-24T10:39:17;98967.56;;;7.71;56.45
19208;BME280;9737;59.466;18.036;2023-04-24T10:41:53;98997.84;;;7.78;56.76
19208;BME280;9737;59.466;18.036;2023-04-24T10:44:24;99042.78;;;7.90;56.70
19208;BME280;9737;59.466;18.036;2023-04-24T10:46:54;99048.06;;;7.90;56.95
19208;BME280;9737;59.466;18.036;2023-04-24T10:49:28;98959.75;;;7.70;56.77
19208;BME280;9737;59.466;18.036;2023-04-24T10:52:02;98884.00;;;7.48;56.97
19208;BME280;9737;59.466;18.036;2023-04-24T10:54:35;98905.53;;;7.55;56.67
19208;BME280;9737;59.466;18.036;2023-04-24T10:57:33;98968.53;;;7.70;56.69
19208;BME280;9737;59.466;18.036;2023-04-24T11:00:14;98945.38;;;7.63;57.09
19208;BME280;9737;59.466;18.036;2023-04-24T11:02:42;98977.91;;;7.74;56.72
19208;BME280;9737;59.466;18.036;2023-04-24T11:05:16;98981.50;;;7.73;57.04
19208;BME280;9737;59.466;18.036;2023-04-24T11:08:11;99038.47;;;7.89;57.07
19208;BME280;9737;59.466;18.036;2023-04-24T11:10:40;98954.75;;;7.67;56.90
19208;BME280;9737;59.466;18.036;2023-04-24T11:13:10;98979.69;;;7.74;57.31
19208;BME280;9737;59.466;18.036;2023-04-24T11:15:41;98947.91;;;7.64;57.05
19208;BME280;9737;59.466;18.036;2023-04-24T11:18:13;98903.00;;;7.53;57.37
19208;BME280;9737;59.466;18.036;2023-04-24T11:20:42;98797.16;;;7.23;57.04
19208;BME280;9737;59.466;18.036;2023-04-24T11:23:12;98766.94;;;7.15;57.17
19208;BME280;9737;59.466;18.036;2023-04-24T11:25:41;98781.56;;;7.20;56.83
19208;BME280;9737;59.466;18.036;2023-04-24T11:28:14;98713.44;;;7.02;57.31
19208;BME280;9737;59.466;18.036;2023-04-24T11:30:43;98766.94;;;7.15;57.41
19208;BME280;9737;59.466;18.036;2023-04-24T11:33:11;98841.06;;;7.35;57.37
19208;BME280;9737;59.466;18.036;2023-04-24T11:35:47;98855.13;;;7.35;57.60
19208;BME280;9737;59.466;18.036;2023-04-24T11:38:16;98941.91;;;7.62;57.45
19208;BME280;9737;59.466;18.036;2023-04-24T11:40:51;98915.25;;;7.54;57.68
19208;BME280;9737;59.466;18.036;2023-04-24T11:43:19;98936.88;;;7.59;57.71
19208;BME280;9737;59.466;18.036;2023-04-24T11:45:48;98948.16;;;7.61;57.44
19208;BME280;9737;59.466;18.036;2023-04-24T11:48:19;98974.94;;;7.68;57.71
19208;BME280;9737;59.466;18.036;2023-04-24T11:50:49;98981.63;;;7.72;57.62
19208;BME280;9737;59.466;18.036;2023-04-24T11:53:19;98976.63;;;7.69;57.37
19208;BME280;9737;59.466;18.036;2023-04-24T11:55:48;98991.38;;;7.71;57.63
19208;BME280;9737;59.466;18.036;2023-04-24T11:58:20;98925.84;;;7.54;57.32
19208;BME280;9737;59.466;18.036;2023-04-24T12:00:55;98798.13;;;7.22;57.55
19208;BME280;9737;59.466;18.036;2023-04-24T12:03:23;98754.25;;;7.09;57.46
19208;BME280;9737;59.466;18.036;2023-04-24T12:05:52;98731.69;;;7.05;57.92
19208;BME280;9737;59.466;18.036;2023-04-24T12:08:28;98705.09;;;6.97;57.78
19208;BME280;9737;59.466;18.036;2023-04-24T12:10:56;98705.09;;;6.97;57.90
19208;BME280;9737;59.466;18.036;2023-04-24T12:13:25;98661.91;;;6.87;57.82
19208;BME280;9737;59.466;18.036;2023-04-24T12:15:53;98654.22;;;6.84;57.83
19208;BME280;9737;59.466;18.036;2023-04-24T12:18:22;98587.16;;;6.66;57.93
19208;BME280;9737;59.466;18.036;2023-04-24T12:20:50;98558.59;;;6.60;57.71
19208;BME280;9737;59.466;18.036;2023-04-24T12:26:11;98541.50;;;6.54;57.90
19208;BME280;9737;59.466;18.036;2023-04-24T12:28:39;98501.84;;;6.44;57.88
19208;BME280;9737;59.466;18.036;2023-04-24T12:31:07;98517.16;;;6.50;57.40
19208;BME280;9737;59.466;18.036;2023-04-24T12:33:35;98568.91;;;6.63;58.00
19208;BME280;9737;59.466;18.036;2023-04-24T12:36:05;98603.16;;;6.74;58.05
19208;BME280;9737;59.466;18.036;2023-04-24T12:38:33;98608.59;;;6.72;58.09
19208;BME280;9737;59.466;18.036;2023-04-24T12:41:08;98609.41;;;6.73;58.24
19208;BME280;9737;59.466;18.036;2023-04-24T12:43:37;98607.03;;;6.70;58.12
19208;BME280;9737;59.466;18.036;2023-04-24T12:46:05;98657.84;;;6.83;57.93
19208;BME280;9737;59.466;18.036;2023-04-24T12:48:34;98614.72;;;6.73;58.21
19208;BME280;9737;59.466;18.036;2023-04-24T12:51:05;98645.88;;;6.79;57.70
19208;BME280;9737;59.466;18.036;2023-04-24T12:53:33;98637.13;;;6.78;58.22
19208;BME280;9737;59.466;18.036;2023-04-24T12:56:01;98656.88;;;6.84;57.90
19208;BME280;9737;59.466;18.036;2023-04-24T12:58:29;98687.09;;;6.91;58.33
19208;BME280;9737;59.466;18.036;2023-04-24T13:00:58;98617.34;;;6.73;58.31
19208;BME280;9737;59.466;18.036;2023-04-24T13:03:27;98643.22;;;6.79;57.99
19208;BME280;9737;59.466;18.036;2023-04-24T13:05:55;98696.69;;;6.92;58.26
19208;BME280;9737;59.466;18.036;2023-04-24T13:08:23;98594.09;;;6.67;58.33
19208;BME280;9737;59.466;18.036;2023-04-24T13:10:51;98600.09;;;6.69;58.08
19208;BME280;9737;59.466;18.036;2023-04-24T13:13:20;98570.84;;;6.61;58.07
19208;BME280;9737;59.466;18.036;2023-04-24T13:15:48;98567.50;;;6.59;58.25
19208;BME280;9737;59.466;18.036;2023-04-24T13:18:17;98558.59;;;6.60;58.38
19208;BME280;9737;59.466;18.036;2023-04-24T13:20:45;98539.25;;;6.49;58.12
19208;BME280;9737;59.466;18.036;2023-04-24T13:23:13;98510.75;;;6.43;58.21